createdAt,value
2024-03-06T00:01:14.471Z,100259.94
2024-03-06T00:03:42.197Z,100263.47
2024-03-06T00:06:09.769Z,100256.03
2024-03-06T00:08:38.340Z,100255.25
2024-03-06T00:11:06.239Z,100263.22
2024-03-06T00:13:33.877Z,100260.50
2024-03-06T00:16:01.500Z,100253.59
2024-03-06T00:18:29.565Z,100254.03
2024-03-06T00:20:57.346Z,100256.47
2024-03-06T00:23:24.855Z,100262.72
2024-03-06T00:25:52.754Z,100255.91
2024-03-06T00:28:20.270Z,100257.66
2024-03-06T00:30:48.043Z,100258.88
2024-03-06T00:33:15.934Z,100262.31
2024-03-06T00:35:43.502Z,100264.09
2024-03-06T00:38:11.152Z,100260.59
2024-03-06T00:40:39.088Z,100259.81
2024-03-06T00:43:07.227Z,100259.06
2024-03-06T00:45:34.754Z,100257.37
2024-03-06T00:48:02.563Z,100260.03
2024-03-06T00:50:30.083Z,100261.28
2024-03-06T00:52:57.587Z,100261.56
2024-03-06T00:55:27.673Z,100264.16
2024-03-06T00:57:55.177Z,100259.22
2024-03-06T01:00:23.277Z,100262.78
2024-03-06T01:02:51.190Z,100257.84
2024-03-06T01:05:18.861Z,100255.25
2024-03-06T01:07:46.612Z,100260.06
2024-03-06T01:10:14.495Z,100251.38
2024-03-06T01:12:42.064Z,100267.84
2024-03-06T01:15:09.888Z,100260.06
2024-03-06T01:17:37.634Z,100262.16
2024-03-06T01:20:07.906Z,100259.66
2024-03-06T01:22:36.197Z,100259.47
2024-03-06T01:25:06.055Z,100256.19
2024-03-06T01:27:33.615Z,100262.44
2024-03-06T01:30:01.177Z,100259.00
2024-03-06T01:32:29.126Z,100263.38
2024-03-06T01:34:56.696Z,100261.84
2024-03-06T01:37:24.209Z,100263.44
2024-03-06T01:39:51.882Z,100260.06
2024-03-06T01:42:19.549Z,100272.28
2024-03-06T01:44:47.037Z,100273.16
2024-03-06T01:47:14.919Z,100260.47
2024-03-06T01:49:45.452Z,100255.44
2024-03-06T01:52:14.791Z,100260.47
2024-03-06T01:54:45.712Z,100259.03
2024-03-06T01:57:16.887Z,100260.87
2024-03-06T01:59:44.963Z,100262.66
2024-03-06T02:02:12.793Z,100262.72
2024-03-06T02:04:40.962Z,100261.28
2024-03-06T02:07:14.217Z,100257.00
2024-03-06T02:09:42.230Z,100255.22
2024-03-06T02:12:09.978Z,100266.56
2024-03-06T02:14:37.851Z,100263.34
2024-03-06T02:17:06.018Z,100269.59
2024-03-06T02:19:44.806Z,100270.47
2024-03-06T02:22:12.917Z,100270.63
2024-03-06T02:24:46.098Z,100272.44
2024-03-06T02:27:13.903Z,100268.25
2024-03-06T02:29:41.383Z,100269.97
2024-03-06T02:32:09.674Z,100276.22
2024-03-06T02:34:37.616Z,100269.97
2024-03-06T02:37:05.153Z,100269.09
2024-03-06T02:39:32.677Z,100279.78
2024-03-06T02:42:00.415Z,100279.06
2024-03-06T02:44:27.942Z,100285.25
2024-03-06T02:46:55.723Z,100280.19
2024-03-06T02:49:23.575Z,100287.87
2024-03-06T02:51:51.020Z,100286.09
2024-03-06T02:54:18.582Z,100287.00
2024-03-06T02:56:46.393Z,100289.91
2024-03-06T02:59:15.043Z,100287.44
2024-03-06T03:01:42.633Z,100280.53
2024-03-06T03:04:11.430Z,100288.50
2024-03-06T03:06:38.966Z,100288.78
2024-03-06T03:09:06.464Z,100285.25
2024-03-06T03:11:35.031Z,100297.66
2024-03-06T03:14:02.689Z,100286.25
2024-03-06T03:16:30.979Z,100289.00
2024-03-06T03:18:58.680Z,100296.72
2024-03-06T03:21:26.192Z,100286.47
2024-03-06T03:23:53.687Z,100289.91
2024-03-06T03:26:21.967Z,100287.28
2024-03-06T03:28:49.606Z,100290.81
2024-03-06T03:31:17.217Z,100296.81
2024-03-06T03:33:45.026Z,100290.94
2024-03-06T03:36:12.571Z,100290.19
2024-03-06T03:38:43.462Z,100296.25
2024-03-06T03:41:13.620Z,100293.63
2024-03-06T03:43:41.701Z,100295.25
2024-03-06T03:46:10.396Z,100293.47
2024-03-06T03:48:38.736Z,100303.28
2024-03-06T03:51:08.402Z,100301.13
2024-03-06T03:53:36.385Z,100301.06
2024-03-06T03:56:04.717Z,100301.22
2024-03-06T03:58:32.644Z,100307.50
2024-03-06T04:01:00.350Z,100308.34
2024-03-06T04:03:28.143Z,100305.03
2024-03-06T04:05:55.653Z,100308.25
2024-03-06T04:08:23.126Z,100311.81
2024-03-06T04:10:51.006Z,100315.31
2024-03-06T04:13:20.703Z,100307.59
2024-03-06T04:15:48.301Z,100307.59
2024-03-06T04:18:16.070Z,100323.22
2024-03-06T04:20:43.604Z,100306.19
2024-03-06T04:23:11.122Z,100307.03
2024-03-06T04:25:40.729Z,100317.53
2024-03-06T04:28:11.368Z,100319.56
2024-03-06T04:30:39.206Z,100323.72
2024-03-06T04:33:06.703Z,100332.34
2024-03-06T04:35:34.157Z,100326.25
2024-03-06T04:38:04.794Z,100336.72
2024-03-06T04:40:32.619Z,100334.09
2024-03-06T04:43:00.625Z,100341.56
2024-03-06T04:45:29.932Z,100341.03
2024-03-06T04:48:00.127Z,100335.16
2024-03-06T04:50:28.398Z,100341.28
2024-03-06T04:52:57.364Z,100339.69
2024-03-06T04:55:26.353Z,100344.00
2024-03-06T04:57:54.960Z,100342.34
2024-03-06T05:00:22.623Z,100334.72
2024-03-06T05:58:08.683Z,100353.22
2024-03-06T06:00:36.734Z,100352.19
2024-03-06T06:03:17.698Z,100359.44
2024-03-06T06:05:48.011Z,100357.00
2024-03-06T06:08:19.742Z,100361.25
2024-03-06T06:10:47.359Z,100359.19
2024-03-06T06:13:15.771Z,100364.19
2024-03-06T06:15:43.476Z,100359.59
2024-03-06T06:18:11.314Z,100361.41
2024-03-06T06:20:40.035Z,100356.97
2024-03-06T06:23:08.074Z,100368.06
2024-03-06T06:25:36.356Z,100365.41
2024-03-06T06:28:04.286Z,100372.84
2024-03-06T06:30:32.281Z,100377.09
2024-03-06T06:32:59.869Z,100375.25
2024-03-06T06:35:35.267Z,100375.91
2024-03-06T06:38:03.695Z,100365.50
2024-03-06T06:40:31.240Z,100374.97
2024-03-06T06:42:58.789Z,100367.94
2024-03-06T06:45:26.518Z,100360.19
2024-03-06T06:47:54.734Z,100363.50
2024-03-06T06:50:27.367Z,100363.97
2024-03-06T06:52:55.404Z,100366.06
2024-03-06T06:55:25.444Z,100371.19
2024-03-06T06:57:53.006Z,100369.41
2024-03-06T07:00:26.686Z,100371.03
2024-03-06T07:02:54.156Z,100367.41
2024-03-06T07:05:22.008Z,100368.06
2024-03-06T07:07:51.867Z,100372.50
2024-03-06T07:10:21.547Z,100369.66
2024-03-06T07:12:49.263Z,100370.28
2024-03-06T07:15:16.760Z,100373.50
2024-03-06T07:17:44.317Z,100380.34
2024-03-06T07:20:15.397Z,100385.16
2024-03-06T07:22:43.736Z,100384.94
2024-03-06T07:25:11.234Z,100393.16
2024-03-06T07:27:39.022Z,100393.63
2024-03-06T07:30:08.635Z,100387.28
2024-03-06T07:32:37.174Z,100387.84
2024-03-06T07:35:05.286Z,100385.59
2024-03-06T07:37:32.788Z,100392.25
2024-03-06T07:40:02.531Z,100392.84
2024-03-06T07:42:30.725Z,100389.03
2024-03-06T07:45:01.747Z,100387.88
2024-03-06T07:47:29.444Z,100395.34
2024-03-06T07:49:57.267Z,100401.75
2024-03-06T07:52:25.680Z,100395.31
2024-03-06T07:54:53.208Z,100400.97
2024-03-06T07:57:22.422Z,100408.72
2024-03-06T07:59:50.666Z,100409.19
2024-03-06T08:02:18.482Z,100407.16
2024-03-06T08:04:46.269Z,100407.69
2024-03-06T08:07:13.753Z,100413.13
2024-03-06T08:09:41.546Z,100406.87
2024-03-06T08:12:09.741Z,100410.69
2024-03-06T08:14:39.463Z,100408.62
2024-03-06T08:17:07.219Z,100407.16
2024-03-06T08:19:35.025Z,100411.34
2024-03-06T08:22:06.457Z,100409.87
2024-03-06T08:24:35.013Z,100413.63
2024-03-06T08:27:03.263Z,100412.06
2024-03-06T08:29:30.697Z,100414.16
2024-03-06T08:32:01.090Z,100427.44
2024-03-06T08:34:28.725Z,100424.47
2024-03-06T08:36:56.484Z,100430.50
2024-03-06T08:39:25.016Z,100426.50
2024-03-06T08:41:53.863Z,100431.84
2024-03-06T08:44:21.555Z,100432.28
2024-03-06T08:46:51.683Z,100431.91
2024-03-06T08:49:19.244Z,100438.38
2024-03-06T08:51:47.005Z,100430.19
2024-03-06T08:54:15.170Z,100428.16
2024-03-06T08:56:45.357Z,100435.41
2024-03-06T08:59:12.935Z,100435.72
2024-03-06T09:01:40.791Z,100438.03
2024-03-06T09:04:08.468Z,100433.00
2024-03-06T09:06:35.986Z,100438.19
2024-03-06T09:09:03.959Z,100430.34
2024-03-06T09:11:31.525Z,100439.84
2024-03-06T09:13:59.276Z,100442.47
2024-03-06T09:16:27.123Z,100435.12
2024-03-06T09:18:54.654Z,100437.47
2024-03-06T09:21:23.319Z,100435.12
2024-03-06T09:23:52.564Z,100435.25
2024-03-06T09:26:21.712Z,100440.59
2024-03-06T09:28:51.666Z,100440.41
2024-03-06T09:31:19.965Z,100444.19
2024-03-06T09:33:48.782Z,100442.41
2024-03-06T09:36:18.593Z,100444.16
2024-03-06T09:38:46.641Z,100452.41
2024-03-06T09:41:14.272Z,100441.78
2024-03-06T09:43:44.816Z,100443.50
2024-03-06T09:46:12.635Z,100441.72
2024-03-06T09:48:47.513Z,100439.25
2024-03-06T09:51:15.405Z,100435.25
2024-03-06T09:53:44.560Z,100436.53
2024-03-06T09:56:12.242Z,100434.91
2024-03-06T09:58:40.031Z,100431.34
2024-03-06T10:01:08.609Z,100425.78
2024-03-06T10:03:37.966Z,100432.44
2024-03-06T10:06:08.229Z,100430.81
2024-03-06T10:08:47.972Z,100423.37
2024-03-06T10:11:15.759Z,100431.84
2024-03-06T10:13:43.615Z,100422.59
2024-03-06T10:16:12.457Z,100422.19
2024-03-06T10:18:40.324Z,100419.87
2024-03-06T10:21:09.273Z,100413.56
2024-03-06T10:23:38.611Z,100423.53
2024-03-06T10:26:08.319Z,100418.97
2024-03-06T10:28:37.345Z,100418.81
2024-03-06T10:31:08.741Z,100410.56
2024-03-06T10:33:38.663Z,100408.75
2024-03-06T10:36:06.799Z,100411.41
2024-03-06T10:38:37.862Z,100410.16
2024-03-06T10:41:08.696Z,100411.25
2024-03-06T10:43:37.193Z,100414.62
2024-03-06T10:46:07.613Z,100412.75
2024-03-06T10:48:36.142Z,100412.38
2024-03-06T10:51:05.099Z,100408.22
2024-03-06T10:53:33.662Z,100407.78
2024-03-06T10:56:02.094Z,100406.22
2024-03-06T10:58:38.492Z,100406.63
2024-03-06T11:01:18.296Z,100400.06
2024-03-06T11:03:45.836Z,100404.25
2024-03-06T11:06:13.598Z,100398.19
2024-03-06T11:08:41.365Z,100391.56
2024-03-06T11:11:22.739Z,100405.16
2024-03-06T11:13:51.413Z,100395.28
2024-03-06T11:16:18.891Z,100394.53
2024-03-06T11:18:47.323Z,100392.34
2024-03-06T11:21:15.023Z,100380.47
2024-03-06T11:24:18.092Z,100382.59
2024-03-06T11:27:16.318Z,100385.94
2024-03-06T11:30:17.692Z,100376.81
2024-03-06T11:33:04.705Z,100377.00
2024-03-06T11:35:32.476Z,100373.38
2024-03-06T11:38:04.043Z,100367.66
2024-03-06T11:40:32.068Z,100356.22
2024-03-06T11:43:24.463Z,100363.84
2024-03-06T11:45:54.406Z,100348.97
2024-03-06T11:48:24.242Z,100354.12
2024-03-06T11:50:52.188Z,100351.47
2024-03-06T11:53:24.305Z,100344.88
2024-03-06T11:55:57.713Z,100343.50
2024-03-06T11:58:25.223Z,100343.09
2024-03-06T12:00:55.394Z,100336.47
2024-03-06T12:03:24.889Z,100323.41
2024-03-06T12:05:53.381Z,100332.44
2024-03-06T12:08:20.926Z,100328.06
2024-03-06T12:10:52.118Z,100335.31
2024-03-06T12:13:22.045Z,100330.47
2024-03-06T12:15:49.879Z,100334.00
2024-03-06T12:18:20.350Z,100336.34
2024-03-06T12:20:53.195Z,100331.03
2024-03-06T12:23:23.229Z,100329.94
2024-03-06T12:26:01.616Z,100332.34
2024-03-06T12:28:33.599Z,100318.78
2024-03-06T12:31:04.206Z,100328.09
2024-03-06T12:33:33.872Z,100323.28
2024-03-06T12:36:02.112Z,100320.59
2024-03-06T12:38:30.769Z,100314.13
2024-03-06T12:40:59.743Z,100311.00
2024-03-06T12:43:27.796Z,100316.66
2024-03-06T12:45:56.141Z,100306.25
2024-03-06T12:48:24.782Z,100308.66
2024-03-06T12:50:55.183Z,100304.66
2024-03-06T12:53:23.299Z,100309.03
2024-03-06T12:55:51.036Z,100299.13
2024-03-06T12:58:19.067Z,100298.50
2024-03-06T13:00:46.714Z,100295.53
2024-03-06T13:03:14.532Z,100291.75
2024-03-06T13:05:42.633Z,100287.13
2024-03-06T13:08:10.284Z,100293.53
2024-03-06T13:10:37.769Z,100288.59
2024-03-06T13:13:05.503Z,100283.06
2024-03-06T13:15:32.961Z,100288.66
2024-03-06T13:18:01.090Z,100281.13
2024-03-06T13:20:29.011Z,100287.44
2024-03-06T13:22:56.710Z,100276.44
2024-03-06T13:25:24.271Z,100276.31
2024-03-06T13:27:55.357Z,100274.28
2024-03-06T13:30:32.133Z,100277.06
2024-03-06T13:33:00.248Z,100270.19
2024-03-06T13:35:28.061Z,100276.94
2024-03-06T13:37:55.823Z,100273.41
2024-03-06T13:40:23.956Z,100269.31
2024-03-06T13:42:51.630Z,100270.34
2024-03-06T13:45:19.269Z,100262.56
2024-03-06T13:47:47.373Z,100267.84
2024-03-06T13:50:16.202Z,100259.38
2024-03-06T13:52:44.232Z,100259.59
2024-03-06T13:55:12.256Z,100253.13
2024-03-06T13:57:40.896Z,100249.34
2024-03-06T14:00:18.697Z,100262.97
2024-03-06T14:02:48.155Z,100254.50
2024-03-06T14:05:20.739Z,100243.69
2024-03-06T14:07:48.844Z,100236.50
2024-03-06T14:10:17.660Z,100246.56
2024-03-06T14:12:45.136Z,100233.81
2024-03-06T14:15:17.237Z,100240.53
2024-03-06T14:17:45.014Z,100237.97
2024-03-06T14:20:13.687Z,100237.88
2024-03-06T14:22:41.592Z,100241.31
2024-03-06T14:25:09.670Z,100238.03
2024-03-06T14:27:39.866Z,100229.75
2024-03-06T14:30:16.335Z,100235.84
2024-03-06T14:32:44.915Z,100240.28
2024-03-06T14:35:16.032Z,100233.47
2024-03-06T14:37:43.840Z,100234.19
2024-03-06T14:40:11.939Z,100228.47
2024-03-06T14:42:39.522Z,100232.56
2024-03-06T14:45:08.488Z,100224.69
2024-03-06T14:47:37.626Z,100221.66
2024-03-06T14:50:06.680Z,100237.00
2024-03-06T14:52:35.881Z,100235.94
2024-03-06T14:55:04.772Z,100232.78
2024-03-06T14:57:32.437Z,100227.41
2024-03-06T15:00:00.421Z,100219.22
2024-03-06T15:02:28.278Z,100227.47
2024-03-06T15:04:55.810Z,100226.56
2024-03-06T15:07:26.383Z,100223.87
2024-03-06T15:09:58.844Z,100226.19
2024-03-06T15:12:27.008Z,100228.13
2024-03-06T15:14:58.532Z,100231.19
2024-03-06T15:17:27.393Z,100234.56
2024-03-06T15:19:54.995Z,100227.41
2024-03-06T15:22:25.521Z,100228.28
2024-03-06T15:24:53.313Z,100227.28
2024-03-06T15:27:23.863Z,100231.78
2024-03-06T15:29:51.814Z,100224.16
2024-03-06T15:32:19.810Z,100227.00
2024-03-06T15:34:47.359Z,100220.81
2024-03-06T15:37:14.936Z,100215.12
2024-03-06T15:39:42.684Z,100221.53
2024-03-06T15:42:10.147Z,100214.81
2024-03-06T15:44:37.728Z,100222.25
2024-03-06T15:47:10.445Z,100220.09
2024-03-06T15:49:38.919Z,100225.47
2024-03-06T15:52:07.061Z,100224.81
2024-03-06T15:54:34.799Z,100225.25
2024-03-06T15:57:02.765Z,100217.44
2024-03-06T15:59:31.655Z,100223.94
2024-03-06T16:01:59.216Z,100221.84
2024-03-06T16:04:27.055Z,100230.28
2024-03-06T16:06:54.764Z,100227.72
2024-03-06T16:09:22.210Z,100223.56
2024-03-06T16:11:52.745Z,100224.50
2024-03-06T16:14:20.318Z,100235.12
2024-03-06T16:16:48.153Z,100238.06
2024-03-06T16:19:20.407Z,100241.75
2024-03-06T16:21:53.094Z,100238.81
2024-03-06T16:24:20.962Z,100242.69
2024-03-06T16:26:48.538Z,100242.47
2024-03-06T16:29:16.038Z,100238.41
2024-03-06T16:31:45.369Z,100241.22
2024-03-06T16:34:13.052Z,100251.09
2024-03-06T16:36:40.672Z,100247.31
2024-03-06T16:39:08.512Z,100252.09
2024-03-06T16:41:36.738Z,100245.56
2024-03-06T16:44:05.144Z,100251.84
2024-03-06T16:46:32.996Z,100258.59
2024-03-06T16:49:00.531Z,100257.00
2024-03-06T16:51:29.447Z,100251.47
2024-03-06T16:53:59.606Z,100257.94
2024-03-06T16:56:31.978Z,100250.31
2024-03-06T16:58:59.812Z,100257.59
2024-03-06T17:01:27.481Z,100264.69
2024-03-06T17:03:55.049Z,100263.78
2024-03-06T17:06:23.187Z,100274.03
2024-03-06T17:08:51.071Z,100273.53
2024-03-06T17:11:19.057Z,100275.63
2024-03-06T17:13:48.183Z,100280.38
2024-03-06T17:16:16.097Z,100287.69
2024-03-06T17:18:43.646Z,100290.47
2024-03-06T17:21:11.404Z,100299.53
2024-03-06T17:23:38.932Z,100303.97
2024-03-06T17:26:06.429Z,100298.00
2024-03-06T17:28:34.246Z,100299.84
2024-03-06T17:31:01.954Z,100304.19
2024-03-06T17:33:29.681Z,100306.34
2024-03-06T17:35:58.676Z,100310.69
2024-03-06T17:38:27.454Z,100305.41
2024-03-06T17:40:55.253Z,100300.31
2024-03-06T17:43:23.376Z,100309.84
2024-03-06T17:45:51.036Z,100298.06
2024-03-06T17:48:20.908Z,100307.34
2024-03-06T17:50:48.929Z,100307.63
2024-03-06T17:53:17.119Z,100305.81
2024-03-06T17:55:44.595Z,100301.53
2024-03-06T17:58:12.421Z,100303.03
2024-03-06T18:00:40.212Z,100296.00
2024-03-06T18:03:08.814Z,100305.56
2024-03-06T18:05:36.500Z,100300.31
2024-03-06T18:08:04.890Z,100291.56
2024-03-06T18:10:34.208Z,100299.38
2024-03-06T18:13:01.941Z,100301.84
2024-03-06T18:15:29.681Z,100296.97
2024-03-06T18:17:57.670Z,100305.72
2024-03-06T18:20:27.390Z,100300.78
2024-03-06T18:22:55.015Z,100296.97
2024-03-06T18:25:22.984Z,100303.09
2024-03-06T18:27:50.894Z,100298.16
2024-03-06T18:30:18.663Z,100296.28
2024-03-06T18:32:46.931Z,100302.31
2024-03-06T18:35:14.990Z,100293.75
2024-03-06T18:37:42.723Z,100294.50
2024-03-06T18:40:13.749Z,100296.12
2024-03-06T18:42:42.231Z,100297.06
2024-03-06T18:45:10.624Z,100295.38
2024-03-06T18:47:38.415Z,100292.66
2024-03-06T18:50:06.941Z,100295.19
2024-03-06T18:52:35.245Z,100296.03
2024-03-06T18:55:03.864Z,100298.63
2024-03-06T18:57:34.364Z,100299.00
2024-03-06T19:00:03.528Z,100297.13
2024-03-06T19:02:31.449Z,100297.22
2024-03-06T19:04:59.173Z,100296.28
2024-03-06T19:07:29.458Z,100296.12
2024-03-06T19:09:57.951Z,100306.50
2024-03-06T19:12:26.294Z,100301.06
2024-03-06T19:14:54.550Z,100305.88
2024-03-06T19:17:22.324Z,100308.50
2024-03-06T19:19:50.886Z,100301.97
2024-03-06T19:22:18.662Z,100299.84
2024-03-06T19:24:47.545Z,100312.06
2024-03-06T19:27:16.766Z,100314.63
2024-03-06T19:29:45.223Z,100314.63
2024-03-06T19:32:12.953Z,100316.47
2024-03-06T19:34:40.994Z,100316.53
2024-03-06T19:37:09.318Z,100311.28
2024-03-06T19:39:37.001Z,100304.19
2024-03-06T19:42:06.720Z,100310.16
2024-03-06T19:44:34.758Z,100305.91
2024-03-06T19:47:02.620Z,100310.31
2024-03-06T19:49:32.462Z,100317.59
2024-03-06T19:52:00.252Z,100312.31
2024-03-06T19:54:30.237Z,100319.28
2024-03-06T19:57:00.022Z,100321.16
2024-03-06T19:59:28.343Z,100319.16
2024-03-06T20:01:57.101Z,100318.37
2024-03-06T20:04:25.581Z,100321.09
2024-03-06T20:06:53.281Z,100320.94
2024-03-06T20:09:21.107Z,100321.50
2024-03-06T20:11:49.380Z,100319.66
2024-03-06T20:14:17.258Z,100319.72
2024-03-06T20:16:45.153Z,100322.44
2024-03-06T20:19:13.603Z,100319.16
2024-03-06T20:21:41.530Z,100316.97
2024-03-06T20:24:10.139Z,100317.03
2024-03-06T20:26:38.403Z,100319.50
2024-03-06T20:29:06.239Z,100324.34
2024-03-06T20:31:33.771Z,100326.03
2024-03-06T20:34:01.731Z,100318.66
2024-03-06T20:36:32.542Z,100319.72
2024-03-06T20:39:00.671Z,100316.25
2024-03-06T20:41:30.904Z,100317.81
2024-03-06T20:43:58.707Z,100314.25
2024-03-06T20:46:29.095Z,100311.91
2024-03-06T20:48:56.867Z,100312.63
2024-03-06T20:51:24.898Z,100315.47
2024-03-06T20:53:53.630Z,100306.72
2024-03-06T20:56:24.230Z,100317.34
2024-03-06T20:58:53.237Z,100317.16
2024-03-06T21:01:22.361Z,100315.41
2024-03-06T21:03:52.759Z,100312.84
2024-03-06T21:06:20.176Z,100306.81
2024-03-06T21:08:48.285Z,100299.19
2024-03-06T21:11:15.973Z,100312.41
2024-03-06T21:13:44.390Z,100311.69
2024-03-06T21:16:12.144Z,100315.44
2024-03-06T21:18:40.516Z,100318.00
2024-03-06T21:21:08.365Z,100322.78
2024-03-06T21:23:36.346Z,100329.78
2024-03-06T21:26:04.575Z,100319.50
2024-03-06T21:28:32.851Z,100330.00
2024-03-06T21:31:00.989Z,100336.25
2024-03-06T21:33:28.605Z,100337.94
2024-03-06T21:35:56.188Z,100332.94
2024-03-06T21:38:24.052Z,100333.00
2024-03-06T21:40:51.606Z,100335.44
2024-03-06T21:43:21.363Z,100335.13
2024-03-06T21:45:49.034Z,100335.72
2024-03-06T21:48:16.661Z,100339.75
2024-03-06T21:50:44.378Z,100339.09
2024-03-06T21:53:12.283Z,100342.69
2024-03-06T21:55:41.830Z,100349.72
2024-03-06T21:58:11.578Z,100344.75
2024-03-06T22:00:39.250Z,100349.97
2024-03-06T22:03:10.556Z,100347.75
2024-03-06T22:05:38.132Z,100349.75
2024-03-06T22:08:06.284Z,100355.72
2024-03-06T22:10:33.998Z,100349.56
2024-03-06T22:13:01.780Z,100348.84
2024-03-06T22:15:29.254Z,100357.50
2024-03-06T22:17:57.037Z,100360.47
2024-03-06T22:20:24.547Z,100368.22
2024-03-06T22:22:52.355Z,100364.31
2024-03-06T22:25:20.072Z,100362.53
2024-03-06T22:27:47.591Z,100353.09
2024-03-06T22:30:17.064Z,100354.91
2024-03-06T22:32:45.135Z,100353.38
2024-03-06T22:35:12.823Z,100357.03
2024-03-06T22:37:40.305Z,100348.47
2024-03-06T22:40:10.357Z,100343.38
2024-03-06T22:42:37.912Z,100345.03
2024-03-06T22:45:05.780Z,100347.59
2024-03-06T22:47:33.965Z,100356.47
2024-03-06T22:50:01.508Z,100351.63
2024-03-06T22:52:28.967Z,100355.63
2024-03-06T22:54:56.667Z,100357.75
2024-03-06T22:57:26.639Z,100360.78
2024-03-06T22:59:54.317Z,100358.19
2024-03-06T23:02:22.082Z,100359.84
2024-03-06T23:04:49.568Z,100366.28
2024-03-06T23:07:17.069Z,100368.06
2024-03-06T23:09:46.482Z,100364.88
2024-03-06T23:12:14.055Z,100365.19
2024-03-06T23:14:41.526Z,100360.22
2024-03-06T23:17:09.591Z,100364.53
2024-03-06T23:19:37.070Z,100358.91
2024-03-06T23:22:04.612Z,100361.19
2024-03-06T23:24:32.964Z,100358.94
2024-03-06T23:27:00.496Z,100362.56
2024-03-06T23:29:28.336Z,100364.25
2024-03-06T23:31:56.129Z,100364.34
2024-03-06T23:34:23.583Z,100366.78
2024-03-06T23:36:51.105Z,100367.72
2024-03-06T23:39:19.989Z,100368.91
2024-03-06T23:41:47.716Z,100368.72
2024-03-06T23:44:15.207Z,100362.25
2024-03-06T23:46:45.203Z,100371.06
2024-03-06T23:49:14.619Z,100373.00
2024-03-06T23:51:46.155Z,100373.16
2024-03-06T23:54:14.156Z,100372.34
2024-03-06T23:56:41.702Z,100361.34
2024-03-06T23:59:09.428Z,100364.28
